Mineral Tianjin — ONBF — position and weather

sailwx.info

Track history (hours):
 
Tides and Currents Weather Stations Pressure Air Temp Water Temp Dewpoint Dewpoint Depression Visibility Wind Speed Wind Dir Waves Ship Positions

Mineral Tianjin

Last reported at 2018-Feb-19 16:00 UTC. Time now 2018-Feb-20 01:44 UTC.
Position N 21°54' E 114°00'.

Length 289 m; draft 18.2 m.

Type: Cargo ship. MMSI: 205420000.

Wind from 060 at 9 knots

Barometer 1015.0 mb
Air temperature 22.0 ° C
Dewpoint 17.0 ° C
Water temperature 19.0 ° C

Date/timePositionNaut miles runAvg speedWind from/ knotsBaromVisibWave heightAir tempDewpointWater temp
2018-Feb-19 16:00N 21°54' E 114°00'0 0.0 060 / 91015.0 22.017.019.0
2018-Feb-18 15:00N 21°54' E 114°00'0 0.0 060 / 141016.0 0.3 20.017.018.0
2018-Feb-17 15:00N 21°54' E 114°00'157 3.1 060 / 24 0.5 18.015.016.0
2018-Feb-15 13:00N 20°54' E 111°24'   360 / 11 21.018.019.0
2018-Feb-13 08:56N 21°10' E 110°24'0 0.0
2018-Feb-13 08:28N 21°10' E 110°24'0 0.0
2018-Feb-13 07:59N 21°10' E 110°24'0 0.0
2018-Feb-13 07:28N 21°10' E 110°24'0 0.0
2018-Feb-13 06:59N 21°10' E 110°24'0 0.0
2018-Feb-13 06:20N 21°10' E 110°24'0 0.0
2018-Feb-13 05:56N 21°10' E 110°24'0 0.0
2018-Feb-13 05:26N 21°10' E 110°24'0 0.0
2018-Feb-13 04:59N 21°10' E 110°24'0 0.0
2018-Feb-13 04:29N 21°10' E 110°24'0 0.0
2018-Feb-13 03:58N 21°10' E 110°24'0 0.0
2018-Feb-13 03:28N 21°10' E 110°24'0 0.0
2018-Feb-13 02:56N 21°10' E 110°24'0 0.0
2018-Feb-13 02:29N 21°10' E 110°24'0 0.0
2018-Feb-13 01:58N 21°10' E 110°24'0 0.0
2018-Feb-13 01:29N 21°10' E 110°24'0 0.0
2018-Feb-13 00:53N 21°10' E 110°24'0 0.0
2018-Feb-13 00:23N 21°10' E 110°24'0 0.0
2018-Feb-12 23:50N 21°10' E 110°24'0 0.0
2018-Feb-12 23:26N 21°10' E 110°24'0 0.0
2018-Feb-12 22:50N 21°10' E 110°24'0 0.0
2018-Feb-12 22:29N 21°10' E 110°24'0 0.0
2018-Feb-12 21:38N 21°10' E 110°24'0 0.0
2018-Feb-12 21:14N 21°10' E 110°24'0 0.0
2018-Feb-12 20:56N 21°10' E 110°24'0 0.0
2018-Feb-12 20:26N 21°10' E 110°24'0 0.0
2018-Feb-12 19:56N 21°10' E 110°24'0 0.4
2018-Feb-12 19:30N 21°10' E 110°25'2 4.0
2018-Feb-12 19:00N 21°08' E 110°25'3 6.3
2018-Feb-12 18:30N 21°05' E 110°27'4 8.1
2018-Feb-12 18:00N 21°05' E 110°32'4 8.9
2018-Feb-12 17:30N 21°03' E 110°36'5 9.0
2018-Feb-12 16:59N 21°03' E 110°41'5 9.7
2018-Feb-12 16:30N 21°02' E 110°46'3 6.6
2018-Feb-12 16:00N 20°60' E 110°48'3 5.9
2018-Feb-12 15:30N 20°58' E 110°51'4 9.0
2018-Feb-12 15:00N 20°55' E 110°54'5 9.5
2018-Feb-12 14:30N 20°51' E 110°58'3 6.5
2018-Feb-12 14:00N 20°49' E 111°00'3 5.2
2018-Feb-12 13:30N 20°47' E 111°02'3 5.3
2018-Feb-12 13:00N 20°45' E 111°04'3 5.4
2018-Feb-12 12:28N 20°44' E 111°07'2 4.8
2018-Feb-12 11:59N 20°42' E 111°09'2 3.9
2018-Feb-12 11:30N 20°40' E 111°09'3 5.6
2018-Feb-12 10:58N 20°38' E 111°11'3 5.5
2018-Feb-12 10:30N 20°36' E 111°13'3 6.0
2018-Feb-12 10:00N 20°34' E 111°15'414 9.6
2018-Feb-10 15:00N 13°42' E 110°30'   25.021.023.0
Track history (hours):
 
Tides and Currents Weather Stations Pressure Air Temp Water Temp Dewpoint Dewpoint Depression Visibility Wind Speed Wind Dir Waves Ship Positions

Mineral Tianjin

Last reported at 2018-Feb-19 16:00 UTC. Time now 2018-Feb-20 01:44 UTC.
Position N 21°54' E 114°00'.

Length 289 m; draft 18.2 m.

Type: Cargo ship. MMSI: 205420000.

Wind from 060 at 9 knots

Barometer 1015.0 mb
Air temperature 22.0 ° C
Dewpoint 17.0 ° C
Water temperature 19.0 ° C

Date/timePositionNaut miles runAvg speedWind from/ knotsBaromVisibWave heightAir tempDewpointWater temp
2018-Feb-19 16:00N 21°54' E 114°00'0 0.0 060 / 91015.0 22.017.019.0
2018-Feb-18 15:00N 21°54' E 114°00'0 0.0 060 / 141016.0 0.3 20.017.018.0
2018-Feb-17 15:00N 21°54' E 114°00'157 3.1 060 / 24 0.5 18.015.016.0
2018-Feb-15 13:00N 20°54' E 111°24'   360 / 11 21.018.019.0
2018-Feb-13 08:56N 21°10' E 110°24'0 0.0
2018-Feb-13 08:28N 21°10' E 110°24'0 0.0
2018-Feb-13 07:59N 21°10' E 110°24'0 0.0
2018-Feb-13 07:28N 21°10' E 110°24'0 0.0
2018-Feb-13 06:59N 21°10' E 110°24'0 0.0
2018-Feb-13 06:20N 21°10' E 110°24'0 0.0
2018-Feb-13 05:56N 21°10' E 110°24'0 0.0
2018-Feb-13 05:26N 21°10' E 110°24'0 0.0
2018-Feb-13 04:59N 21°10' E 110°24'0 0.0
2018-Feb-13 04:29N 21°10' E 110°24'0 0.0
2018-Feb-13 03:58N 21°10' E 110°24'0 0.0
2018-Feb-13 03:28N 21°10' E 110°24'0 0.0
2018-Feb-13 02:56N 21°10' E 110°24'0 0.0
2018-Feb-13 02:29N 21°10' E 110°24'0 0.0
2018-Feb-13 01:58N 21°10' E 110°24'0 0.0
2018-Feb-13 01:29N 21°10' E 110°24'0 0.0
2018-Feb-13 00:53N 21°10' E 110°24'0 0.0
2018-Feb-13 00:23N 21°10' E 110°24'0 0.0
2018-Feb-12 23:50N 21°10' E 110°24'0 0.0
2018-Feb-12 23:26N 21°10' E 110°24'0 0.0
2018-Feb-12 22:50N 21°10' E 110°24'0 0.0
2018-Feb-12 22:29N 21°10' E 110°24'0 0.0
2018-Feb-12 21:38N 21°10' E 110°24'0 0.0
2018-Feb-12 21:14N 21°10' E 110°24'0 0.0
2018-Feb-12 20:56N 21°10' E 110°24'0 0.0
2018-Feb-12 20:26N 21°10' E 110°24'0 0.0
2018-Feb-12 19:56N 21°10' E 110°24'0 0.4
2018-Feb-12 19:30N 21°10' E 110°25'2 4.0
2018-Feb-12 19:00N 21°08' E 110°25'3 6.3
2018-Feb-12 18:30N 21°05' E 110°27'4 8.1
2018-Feb-12 18:00N 21°05' E 110°32'4 8.9
2018-Feb-12 17:30N 21°03' E 110°36'5 9.0
2018-Feb-12 16:59N 21°03' E 110°41'5 9.7
2018-Feb-12 16:30N 21°02' E 110°46'3 6.6
2018-Feb-12 16:00N 20°60' E 110°48'3 5.9
2018-Feb-12 15:30N 20°58' E 110°51'4 9.0
2018-Feb-12 15:00N 20°55' E 110°54'5 9.5
2018-Feb-12 14:30N 20°51' E 110°58'3 6.5
2018-Feb-12 14:00N 20°49' E 111°00'3 5.2
2018-Feb-12 13:30N 20°47' E 111°02'3 5.3
2018-Feb-12 13:00N 20°45' E 111°04'3 5.4
2018-Feb-12 12:28N 20°44' E 111°07'2 4.8
2018-Feb-12 11:59N 20°42' E 111°09'2 3.9
2018-Feb-12 11:30N 20°40' E 111°09'3 5.6
2018-Feb-12 10:58N 20°38' E 111°11'3 5.5
2018-Feb-12 10:30N 20°36' E 111°13'3 6.0
2018-Feb-12 10:00N 20°34' E 111°15'414 9.6
2018-Feb-10 15:00N 13°42' E 110°30'   25.021.023.0

Dump ship's entire track history